createdAt,value
2022-08-04T00:01:51.316Z,100452.91
2022-08-04T00:05:05.485Z,100448.22
2022-08-04T00:08:35.616Z,100441.31
2022-08-04T00:11:42.310Z,100439.50
2022-08-04T00:14:53.201Z,100434.00
2022-08-04T00:18:00.350Z,100431.34
2022-08-04T00:21:06.876Z,100436.81
2022-08-04T00:24:13.134Z,100434.75
2022-08-04T00:27:16.350Z,100436.16
2022-08-04T00:30:18.182Z,100437.97
2022-08-04T00:33:20.982Z,100440.16
2022-08-04T00:36:23.299Z,100447.19
2022-08-04T00:39:25.855Z,100444.72
2022-08-04T00:42:34.782Z,100439.63
2022-08-04T00:46:17.419Z,100448.66
2022-08-04T00:49:32.049Z,100443.16
2022-08-04T00:53:09.442Z,100442.91
2022-08-04T00:56:31.534Z,100444.28
2022-08-04T01:00:06.820Z,100442.06
2022-08-04T01:03:31.993Z,100445.50
2022-08-04T01:07:13.603Z,100445.88
2022-08-04T01:10:53.158Z,100438.97
2022-08-04T01:14:32.419Z,100431.72
2022-08-04T01:17:48.845Z,100440.78
2022-08-04T01:21:12.895Z,100432.66
2022-08-04T01:24:42.569Z,100434.88
2022-08-04T01:28:24.516Z,100426.91
2022-08-04T01:32:07.653Z,100428.50
2022-08-04T01:35:46.855Z,100431.69
2022-08-04T01:38:44.672Z,100434.72
2022-08-04T01:41:58.043Z,100430.78
2022-08-04T01:45:07.030Z,100433.41
2022-08-04T01:48:09.862Z,100427.53
2022-08-04T01:51:12.399Z,100426.88
2022-08-04T01:54:17.939Z,100422.19
2022-08-04T01:57:37.695Z,100428.47
2022-08-04T02:01:08.728Z,100422.03
2022-08-04T02:04:23.410Z,100421.84
2022-08-04T02:07:43.840Z,100420.03
2022-08-04T02:11:04.187Z,100419.22
2022-08-04T02:14:45.649Z,100410.47
2022-08-04T02:18:10.299Z,100415.38
2022-08-04T02:21:14.661Z,100414.19
2022-08-04T02:24:19.060Z,100403.84
2022-08-04T02:27:59.729Z,100406.50
2022-08-04T02:31:26.667Z,100399.41
2022-08-04T02:34:55.329Z,100398.81
2022-08-04T02:38:34.305Z,100396.59
2022-08-04T02:41:37.175Z,100391.34
2022-08-04T02:44:39.828Z,100396.78
2022-08-04T02:48:29.207Z,100402.41
2022-08-04T02:51:06.194Z,100397.16
2022-08-04T02:54:08.692Z,100393.72
2022-08-04T02:57:14.032Z,100391.47
2022-08-04T03:00:18.988Z,100397.94
2022-08-04T03:03:37.452Z,100390.78
2022-08-04T03:06:54.380Z,100383.84
2022-08-04T03:10:33.469Z,100388.66
2022-08-04T03:13:57.066Z,100374.44
2022-08-04T03:17:17.762Z,100384.06
2022-08-04T03:20:34.975Z,100381.19
2022-08-04T03:24:20.322Z,100382.13
2022-08-04T03:28:06.767Z,100381.44
2022-08-04T03:31:23.588Z,100389.06
2022-08-04T03:35:02.989Z,100384.38
2022-08-04T03:38:29.467Z,100374.22
2022-08-04T03:42:04.103Z,100374.22
2022-08-04T03:45:52.697Z,100373.06
2022-08-04T03:49:15.169Z,100378.66
2022-08-04T03:53:02.663Z,100385.94
2022-08-04T03:56:52.230Z,100375.59
2022-08-04T04:00:14.297Z,100384.28
2022-08-04T04:03:31.184Z,100383.28
2022-08-04T04:06:54.170Z,100381.28
2022-08-04T04:10:39.340Z,100378.31
2022-08-04T04:13:44.426Z,100383.34
2022-08-04T04:17:09.108Z,100380.56
2022-08-04T04:20:16.872Z,100383.00
2022-08-04T04:24:03.173Z,100377.94
2022-08-04T04:27:23.691Z,100378.94
2022-08-04T04:30:38.495Z,100378.94
2022-08-04T04:33:58.603Z,100375.47
2022-08-04T04:37:22.914Z,100374.66
2022-08-04T04:40:52.797Z,100369.41
2022-08-04T04:44:09.005Z,100378.09
2022-08-04T04:48:09.947Z,100371.22
2022-08-04T04:51:39.084Z,100376.91
2022-08-04T04:54:47.032Z,100374.28
2022-08-04T04:57:53.969Z,100378.19
2022-08-04T05:01:32.021Z,100375.81
2022-08-04T05:04:49.065Z,100369.81
2022-08-04T05:08:42.991Z,100373.31
2022-08-04T05:11:55.085Z,100365.97
2022-08-04T05:15:00.514Z,100370.88
2022-08-04T05:18:06.907Z,100371.75
2022-08-04T05:21:38.865Z,100361.47
2022-08-04T05:24:44.834Z,100364.97
2022-08-04T05:27:53.108Z,100361.59
2022-08-04T05:31:01.794Z,100365.31
2022-08-04T05:34:31.233Z,100361.53
2022-08-04T05:37:37.520Z,100354.75
2022-08-04T05:40:40.025Z,100356.03
2022-08-04T05:43:44.875Z,100354.66
2022-08-04T05:46:54.167Z,100360.22
2022-08-04T05:50:02.286Z,100358.66
2022-08-04T05:53:06.789Z,100352.00
2022-08-04T05:56:09.596Z,100352.13
2022-08-04T05:59:12.843Z,100350.13
2022-08-04T06:02:18.331Z,100346.13
2022-08-04T06:05:20.939Z,100346.75
2022-08-04T06:08:25.873Z,100347.19
2022-08-04T06:11:29.322Z,100342.34
2022-08-04T06:14:50.318Z,100339.47
2022-08-04T06:19:57.671Z,100344.16
2022-08-04T06:21:50.991Z,100342.56
2022-08-04T06:24:58.158Z,100333.44
2022-08-04T06:28:01.876Z,100331.63
2022-08-04T06:32:28.566Z,100330.38
2022-08-04T06:34:33.465Z,100328.50
2022-08-04T06:37:42.284Z,100331.56
2022-08-04T06:40:53.430Z,100323.72
2022-08-04T06:44:02.839Z,100327.00
2022-08-04T06:47:13.791Z,100327.97
2022-08-04T06:51:32.108Z,100319.75
2022-08-04T06:53:39.006Z,100315.06
2022-08-04T06:56:44.503Z,100315.50
2022-08-04T06:59:49.655Z,100319.34
2022-08-04T07:02:53.570Z,100315.84
2022-08-04T07:05:59.147Z,100317.84
2022-08-04T07:09:08.375Z,100316.59
2022-08-04T07:12:11.502Z,100326.91
2022-08-04T07:15:14.842Z,100324.41
2022-08-04T07:18:19.283Z,100321.28
2022-08-04T07:21:23.367Z,100313.81
2022-08-04T07:24:33.308Z,100311.34
2022-08-04T07:27:48.216Z,100313.53
2022-08-04T07:30:54.405Z,100307.03
2022-08-04T07:34:16.921Z,100303.69
2022-08-04T07:37:23.090Z,100306.06
2022-08-04T07:40:41.950Z,100300.19
2022-08-04T07:43:49.766Z,100299.94
2022-08-04T07:47:00.410Z,100298.06
2022-08-04T07:50:02.809Z,100307.00
2022-08-04T07:53:53.486Z,100309.06
2022-08-04T07:56:28.859Z,100297.22
2022-08-04T07:59:31.121Z,100295.06
2022-08-04T08:02:42.631Z,100297.28
2022-08-04T08:06:16.715Z,100296.25
2022-08-04T08:09:22.311Z,100294.06
2022-08-04T08:16:01.109Z,100290.50
2022-08-04T08:19:04.278Z,100287.53
2022-08-04T08:22:14.871Z,100280.47
2022-08-04T08:25:41.875Z,100279.88
2022-08-04T08:28:56.080Z,100273.38
2022-08-04T08:32:08.130Z,100271.97
2022-08-04T08:35:11.255Z,100271.59
2022-08-04T08:38:16.299Z,100268.44
2022-08-04T08:41:41.087Z,100269.31
2022-08-04T08:45:07.744Z,100270.25
2022-08-04T08:48:51.676Z,100270.91
2022-08-04T08:52:56.545Z,100268.97
2022-08-04T08:56:42.428Z,100259.34
2022-08-04T09:00:07.730Z,100264.34
2022-08-04T09:03:37.349Z,100266.38
2022-08-04T09:07:04.737Z,100262.09
2022-08-04T09:10:31.841Z,100260.16
2022-08-04T09:13:55.153Z,100260.06
2022-08-04T09:17:13.151Z,100261.94
2022-08-04T09:20:34.243Z,100249.38
2022-08-04T09:24:36.744Z,100248.03
2022-08-04T09:27:43.914Z,100243.97
2022-08-04T09:30:52.493Z,100246.78
2022-08-04T09:34:14.072Z,100240.84
2022-08-04T09:37:52.157Z,100245.97
2022-08-04T09:41:48.725Z,100241.19
2022-08-04T09:45:06.259Z,100239.47
2022-08-04T09:48:15.211Z,100233.75
2022-08-04T09:51:57.975Z,100235.72
2022-08-04T09:55:53.486Z,100228.81
2022-08-04T09:59:23.516Z,100225.72
2022-08-04T10:02:28.645Z,100232.94
2022-08-04T10:06:08.336Z,100226.28
2022-08-04T10:09:19.404Z,100228.97
2022-08-04T10:12:42.206Z,100233.81
2022-08-04T10:15:55.576Z,100223.09
2022-08-04T10:19:15.566Z,100227.38
2022-08-04T10:22:28.302Z,100226.84
2022-08-04T10:26:07.126Z,100213.94
2022-08-04T10:29:15.624Z,100223.59
2022-08-04T10:32:26.275Z,100217.66
2022-08-04T10:35:32.876Z,100217.41
2022-08-04T10:39:02.593Z,100213.13
2022-08-04T10:42:20.796Z,100206.31
2022-08-04T10:45:27.726Z,100201.94
2022-08-04T10:48:45.781Z,100198.38
2022-08-04T10:52:20.739Z,100199.63
2022-08-04T10:56:07.612Z,100193.53
2022-08-04T10:59:15.520Z,100196.88
2022-08-04T11:02:37.794Z,100199.78
2022-08-04T11:05:50.176Z,100205.38
2022-08-04T11:08:55.607Z,100197.88
2022-08-04T11:12:18.965Z,100196.19
2022-08-04T11:15:56.307Z,100196.03
2022-08-04T11:19:42.620Z,100195.59
2022-08-04T11:23:14.773Z,100198.50
2022-08-04T11:26:22.142Z,100196.78
2022-08-04T11:30:13.658Z,100191.41
2022-08-04T11:33:34.965Z,100189.25
2022-08-04T11:36:56.994Z,100183.56
2022-08-04T11:40:14.123Z,100187.97
2022-08-04T11:44:00.522Z,100188.38
2022-08-04T11:47:03.397Z,100184.03
2022-08-04T11:50:17.778Z,100174.16
2022-08-04T11:53:26.283Z,100180.16
2022-08-04T11:56:38.121Z,100183.13
2022-08-04T11:59:43.197Z,100183.56
2022-08-04T12:03:22.341Z,100186.44
2022-08-04T12:06:56.819Z,100186.91
2022-08-04T12:10:15.572Z,100187.38
2022-08-04T12:13:44.833Z,100188.38
2022-08-04T12:16:58.385Z,100175.09
2022-08-04T12:20:34.373Z,100181.09
2022-08-04T12:23:36.248Z,100131.38
2022-08-04T12:26:43.684Z,100175.78
2022-08-04T12:30:56.289Z,100181.47
2022-08-04T12:34:04.784Z,100178.19
2022-08-04T12:37:26.871Z,100169.84
2022-08-04T12:40:37.034Z,100172.84
2022-08-04T12:43:42.451Z,100174.09
2022-08-04T12:46:47.297Z,100163.81
2022-08-04T12:49:58.985Z,100160.03
2022-08-04T12:53:12.131Z,100168.44
2022-08-04T12:56:27.378Z,100163.31
2022-08-04T12:59:29.551Z,100165.88
2022-08-04T13:02:37.514Z,100163.03
2022-08-04T13:05:41.574Z,100166.00
2022-08-04T13:08:46.418Z,100156.03
2022-08-04T13:11:55.174Z,100149.31
2022-08-04T13:15:17.976Z,100147.75
2022-08-04T13:18:44.547Z,100140.50
2022-08-04T13:21:50.299Z,100143.47
2022-08-04T13:26:41.593Z,100148.75
2022-08-04T13:28:28.689Z,100131.88
2022-08-04T13:31:35.647Z,100142.53
2022-08-04T13:34:42.759Z,100133.59
2022-08-04T13:37:53.061Z,100132.34
2022-08-04T13:41:07.442Z,100139.78
2022-08-04T13:44:19.291Z,100137.09
2022-08-04T13:47:33.957Z,100129.91
2022-08-04T13:50:38.951Z,100133.59
2022-08-04T13:53:42.736Z,100128.72
2022-08-04T13:56:56.549Z,100123.56
2022-08-04T14:00:04.992Z,100125.09
2022-08-04T14:03:22.969Z,100122.13
2022-08-04T14:06:36.387Z,100117.06
2022-08-04T14:09:40.122Z,100107.47
2022-08-04T14:13:05.496Z,100101.09
2022-08-04T14:16:21.698Z,100100.44
2022-08-04T14:19:26.888Z,100094.66
2022-08-04T14:22:34.838Z,100104.41
2022-08-04T14:25:37.230Z,100093.53
2022-08-04T14:29:08.522Z,100104.63
2022-08-04T14:32:12.767Z,100089.06
2022-08-04T14:35:16.329Z,100096.25
2022-08-04T14:38:18.484Z,100099.00
2022-08-04T14:41:30.166Z,100096.28
2022-08-04T14:44:32.126Z,100091.72
2022-08-04T14:47:52.656Z,100094.25
2022-08-04T14:50:55.099Z,100104.13
2022-08-04T14:53:57.608Z,100090.41
2022-08-04T14:57:08.581Z,100096.06
2022-08-04T15:00:15.824Z,100099.31
2022-08-04T15:03:21.920Z,100097.09
2022-08-04T15:06:29.033Z,100096.66
2022-08-04T15:09:34.152Z,100105.44
2022-08-04T15:12:36.765Z,100111.84
2022-08-04T15:15:43.280Z,100102.88
2022-08-04T15:19:04.130Z,100101.41
2022-08-04T15:22:07.130Z,100102.84
2022-08-04T15:25:19.774Z,100109.72
2022-08-04T15:28:25.767Z,100105.28
2022-08-04T15:32:06.580Z,100095.75
2022-08-04T15:34:54.899Z,100120.41
2022-08-04T15:38:31.131Z,100174.03
2022-08-04T15:41:55.520Z,100153.50
2022-08-04T15:45:21.053Z,100174.59
2022-08-04T15:48:27.680Z,100172.22
2022-08-04T15:51:32.835Z,100172.81
2022-08-04T15:54:37.217Z,100190.41
2022-08-04T15:58:03.832Z,100184.09
2022-08-04T16:01:15.949Z,100182.84
2022-08-04T16:04:24.145Z,100195.81
2022-08-04T16:08:04.737Z,100195.66
2022-08-04T16:11:06.798Z,100204.63
2022-08-04T16:14:11.367Z,100207.97
2022-08-04T16:17:22.515Z,100206.47
2022-08-04T16:20:24.560Z,100226.59
2022-08-04T16:23:54.262Z,100221.13
2022-08-04T16:27:00.443Z,100219.59
2022-08-04T16:30:14.281Z,100222.47
2022-08-04T16:33:16.782Z,100225.06
2022-08-04T16:36:55.782Z,100230.91
2022-08-04T16:40:35.178Z,100241.28
2022-08-04T16:43:38.767Z,100242.03
2022-08-04T16:47:08.840Z,100252.38
2022-08-04T16:50:06.269Z,100238.50
2022-08-04T16:53:14.595Z,100242.22
2022-08-04T16:56:35.670Z,100241.09
2022-08-04T16:59:37.906Z,100245.56
2022-08-04T17:02:39.959Z,100243.03
2022-08-04T17:05:42.145Z,100245.56
2022-08-04T17:08:47.370Z,100237.34
2022-08-04T17:11:49.342Z,100232.59
2022-08-04T17:14:51.144Z,100234.72
2022-08-04T17:18:27.542Z,100235.50
2022-08-04T17:21:33.041Z,100236.47
2022-08-04T17:24:41.314Z,100228.03
2022-08-04T17:28:20.142Z,100227.47
2022-08-04T17:31:11.143Z,100232.81
2022-08-04T17:34:16.696Z,100222.97
2022-08-04T17:37:39.634Z,100240.91
2022-08-04T17:41:00.051Z,100235.53
2022-08-04T17:44:21.564Z,100242.06
2022-08-04T17:47:25.158Z,100238.50
2022-08-04T17:50:31.220Z,100241.31
2022-08-04T17:54:01.358Z,100237.81
2022-08-04T17:57:21.387Z,100238.41
2022-08-04T18:00:24.035Z,100242.59
2022-08-04T18:03:35.509Z,100232.38
2022-08-04T18:06:38.025Z,100232.50
2022-08-04T18:10:27.498Z,100230.22
2022-08-04T18:13:20.818Z,100228.06
2022-08-04T18:16:23.372Z,100218.22
2022-08-04T18:19:25.741Z,100227.72
2022-08-04T18:22:33.687Z,100227.38
2022-08-04T18:25:50.833Z,100231.28
2022-08-04T18:28:53.836Z,100234.41
2022-08-04T18:31:55.505Z,100246.88
2022-08-04T18:35:05.765Z,100250.34
2022-08-04T18:38:22.693Z,100247.78
2022-08-04T18:41:27.702Z,100248.84
2022-08-04T18:44:31.483Z,100250.59
2022-08-04T18:47:58.344Z,100252.66
2022-08-04T18:51:23.241Z,100241.94
2022-08-04T18:54:19.059Z,100251.97
2022-08-04T18:57:58.733Z,100261.06
2022-08-04T19:00:51.674Z,100274.81
2022-08-04T19:03:57.618Z,100283.44
2022-08-04T19:07:01.019Z,100283.28
2022-08-04T19:10:23.673Z,100277.84
2022-08-04T19:13:30.140Z,100282.66
2022-08-04T19:16:36.999Z,100290.34
2022-08-04T19:19:47.638Z,100305.56
2022-08-04T19:24:23.472Z,100317.56
2022-08-04T19:26:23.764Z,100327.16
2022-08-04T19:29:37.811Z,100331.72
2022-08-04T19:32:46.108Z,100332.25
2022-08-04T19:35:50.772Z,100343.94
2022-08-04T19:38:53.167Z,100340.31
2022-08-04T19:42:06.661Z,100338.72
2022-08-04T19:45:15.952Z,100320.16
2022-08-04T19:48:20.141Z,100339.47
2022-08-04T19:51:22.573Z,100345.34
2022-08-04T19:54:27.503Z,100349.09
2022-08-04T19:57:35.606Z,100339.53
2022-08-04T20:00:39.576Z,100330.78
2022-08-04T20:04:08.327Z,100337.28
2022-08-04T20:07:12.447Z,100344.78
2022-08-04T20:10:16.586Z,100364.69
2022-08-04T20:13:19.035Z,100371.22
2022-08-04T20:16:29.325Z,100368.38
2022-08-04T20:19:32.662Z,100379.56
2022-08-04T20:22:52.831Z,100393.25
2022-08-04T20:25:55.094Z,100414.25
2022-08-04T20:28:58.179Z,100398.63
2022-08-04T20:32:05.683Z,100383.38
2022-08-04T20:35:15.708Z,100377.34
2022-08-04T20:38:33.398Z,100398.09
2022-08-04T20:41:37.133Z,100396.47
2022-08-04T20:44:42.172Z,100397.09
2022-08-04T20:48:01.587Z,100395.28
2022-08-04T20:51:03.429Z,100402.22
2022-08-04T20:54:16.894Z,100413.81
2022-08-04T20:57:47.866Z,100426.84
2022-08-04T21:00:46.984Z,100422.97
2022-08-04T21:04:14.063Z,100386.44
2022-08-04T21:07:29.488Z,100393.41
2022-08-04T21:10:39.792Z,100386.09
2022-08-04T21:13:52.482Z,100374.72
2022-08-04T21:16:59.447Z,100363.97
2022-08-04T21:20:01.358Z,100352.38
2022-08-04T21:23:05.018Z,100369.25
2022-08-04T21:26:10.948Z,100381.66
2022-08-04T21:29:12.845Z,100398.31
2022-08-04T21:32:14.681Z,100413.59
2022-08-04T21:35:19.651Z,100415.22
2022-08-04T21:38:28.061Z,100420.72
2022-08-04T21:41:32.010Z,100432.50
2022-08-04T21:44:34.010Z,100431.84
2022-08-04T21:47:46.635Z,100442.25
2022-08-04T21:50:51.464Z,100431.22
2022-08-04T21:53:54.813Z,100427.97
2022-08-04T21:56:56.807Z,100420.06
2022-08-04T21:59:58.637Z,100424.53
2022-08-04T22:03:03.477Z,100436.53
2022-08-04T22:06:05.609Z,100425.56
2022-08-04T22:09:14.542Z,100432.69
2022-08-04T22:12:20.970Z,100438.34
2022-08-04T22:16:05.124Z,100421.72
2022-08-04T22:18:47.512Z,100410.38
2022-08-04T22:21:49.666Z,100421.50
2022-08-04T22:24:52.203Z,100435.50
2022-08-04T22:28:07.745Z,100436.91
2022-08-04T22:31:24.136Z,100422.72
2022-08-04T22:34:28.051Z,100409.66
2022-08-04T22:37:35.937Z,100393.25
2022-08-04T22:40:41.197Z,100391.59
2022-08-04T22:43:43.691Z,100385.28
2022-08-04T22:46:45.421Z,100393.38
2022-08-04T22:49:56.525Z,100409.56
2022-08-04T22:53:09.416Z,100430.63
2022-08-04T22:56:38.320Z,100398.63
2022-08-04T22:59:43.197Z,100382.19
2022-08-04T23:02:45.588Z,100371.25
2022-08-04T23:05:50.370Z,100375.91
2022-08-04T23:08:52.846Z,100382.16
2022-08-04T23:12:15.099Z,100392.50
2022-08-04T23:15:18.171Z,100398.53
2022-08-04T23:18:20.342Z,100400.97
2022-08-04T23:21:24.846Z,100389.44
2022-08-04T23:24:29.457Z,100396.44
2022-08-04T23:27:40.343Z,100387.94
2022-08-04T23:30:47.083Z,100378.78
2022-08-04T23:33:50.591Z,100379.09
2022-08-04T23:36:53.611Z,100390.81
2022-08-04T23:40:15.658Z,100403.34
2022-08-04T23:43:20.276Z,100418.66
2022-08-04T23:46:25.603Z,100428.03
2022-08-04T23:49:40.799Z,100423.31
2022-08-04T23:52:46.955Z,100433.84
2022-08-04T23:55:51.434Z,100438.28
2022-08-04T23:58:54.023Z,100433.78
